CSCL East China Sea — VRNM3 — position and weather

sailwx.info

Track history (hours):
 
Tides and Currents Weather Stations Pressure Air Temp Water Temp Dewpoint Dewpoint Depression Visibility Wind Speed Wind Dir Waves Ship Positions

CSCL East China Sea

Last reported at 2017-Nov-05 04:50 UTC. Time now 2017-Nov-18 21:12 UTC.
Position N 34°15' W 121°60'.
Warning: this ship's position is 13 days out of date.

Length 335 m; draft 10.3 m.

Type: Cargo ship. MMSI: 477848700.

Date/timePositionNaut miles runAvg speedWind from/ knotsBaromVisibWave heightAir tempDewpointWater temp
2017-Nov-05 04:50N 34°15' W 121°60'513.8
2017-Nov-05 04:31N 34°16' W 121°55'714.0
2017-Nov-05 04:00N 34°17' W 121°46'714.0
2017-Nov-05 03:30N 34°19' W 121°38'713.5
2017-Nov-05 03:00N 34°21' W 121°30'713.3
2017-Nov-05 02:30N 34°23' W 121°23'713.3
2017-Nov-05 02:00N 34°25' W 121°15'713.4
2017-Nov-05 01:30N 34°26' W 121°07'713.4
2017-Nov-05 01:00N 34°26' W 120°59'713.0
2017-Nov-05 00:30N 34°26' W 120°51'713.3
2017-Nov-05 00:00N 34°24' W 120°43'713.6
2017-Nov-04 23:29N 34°22' W 120°35'813.7
2017-Nov-04 22:53N 34°20' W 120°25'513.8
2017-Nov-04 22:30N 34°19' W 120°19'713.7
2017-Nov-04 21:58N 34°17' W 120°11'713.7
2017-Nov-04 21:26N 34°15' W 120°02'613.4
2017-Nov-04 21:00N 34°14' W 119°55'712.7
2017-Nov-04 20:28N 34°12' W 119°48'712.9
2017-Nov-04 19:58N 34°10' W 119°40'613.5
2017-Nov-04 19:31N 34°08' W 119°33'713.8
2017-Nov-04 19:00N 34°07' W 119°25'713.6
2017-Nov-04 18:30N 34°05' W 119°17'713.2
2017-Nov-04 17:59N 34°01' W 119°09'713.4
2017-Nov-04 17:29N 33°58' W 119°02'611.5
2017-Nov-04 16:58N 33°55' W 118°56'511.2
2017-Nov-04 16:30N 33°53' W 118°51'611.1
2017-Nov-04 16:00N 33°50' W 118°45'611.3
2017-Nov-04 15:30N 33°47' W 118°39'611.6
2017-Nov-04 15:00N 33°44' W 118°33'611.1
2017-Nov-04 14:30N 33°41' W 118°27'510.0
2017-Nov-04 13:57N 33°39' W 118°21'410.1
2017-Nov-04 13:31N 33°38' W 118°16'6 8.5
2017-Nov-04 12:50N 33°42' W 118°11'2 0.5
2017-Nov-04 08:10N 33°44' W 118°12'0 0.0
2017-Nov-02 14:43N 33°44' W 118°12'0 0.0
2017-Nov-02 14:28N 33°44' W 118°12'0 0.0
2017-Oct-31 20:04N 33°44' W 118°12'0 0.0
2017-Oct-31 18:52N 33°44' W 118°12'0 0.0
2017-Oct-31 14:49N 33°44' W 118°12'0 0.1
2017-Oct-31 14:11N 33°44' W 118°12'1 1.9
2017-Oct-31 13:54N 33°44' W 118°12'5 7.4
2017-Oct-31 13:15N 33°39' W 118°11'7 8.9
2017-Oct-31 12:26N 33°36' W 118°19'511.2
2017-Oct-31 12:00N 33°38' W 118°24'611.2
2017-Oct-31 11:30N 33°40' W 118°30'511.0
2017-Oct-31 11:00N 33°43' W 118°36'510.9
2017-Oct-31 10:30N 33°44' W 118°42'2 4.2
2017-Oct-31 10:00N 33°44' W 118°45'0 0.4
2017-Oct-31 09:30N 33°44' W 118°45'0 0.6
2017-Oct-31 09:00N 33°45' W 118°44'1 2.0
2017-Oct-31 08:30N 33°46' W 118°44'3 5.3
2017-Oct-31 08:00N 33°48' W 118°46'611.2
2017-Oct-31 07:30N 33°51' W 118°51'611.6
2017-Oct-31 07:00N 33°54' W 118°58'611.8
2017-Oct-31 06:30N 33°57' W 119°04'713.2
2017-Oct-31 05:58N 33°60' W 119°11'511.1
2017-Oct-31 05:29N 34°02' W 119°17'713.9
2017-Oct-31 04:59N 34°04' W 119°25'713.8
2017-Oct-31 04:30N 34°06' W 119°33'714.1
2017-Oct-31 04:00N 34°08' W 119°41'913.9
2017-Oct-31 03:20N 34°11' W 119°52'613.4
2017-Oct-31 02:51N 34°12' W 119°59'513.6
2017-Oct-31 02:30N 34°14' W 120°05'713.5
2017-Oct-31 01:59N 34°15' W 120°13'813.8
2017-Oct-31 01:25N 34°17' W 120°22'613.8
2017-Oct-31 01:00N 34°18' W 120°29'713.4
2017-Oct-31 00:27N 34°21' W 120°37'613.1
2017-Oct-30 23:58N 34°22' W 120°45'814.0
2017-Oct-30 23:24N 34°24' W 120°54'614.6
2017-Oct-30 23:01N 34°24' W 121°01'714.2
2017-Oct-30 22:30N 34°24' W 121°10'714.4
2017-Oct-30 22:00N 34°24' W 121°18'714.4
2017-Oct-30 21:30N 34°24' W 121°27'714.7
2017-Oct-30 21:00N 34°24' W 121°36'714.6
2017-Oct-30 20:30N 34°23' W 121°45'814.6
2017-Oct-30 19:58N 34°23' W 121°54'816.9
2017-Oct-30 19:31N 34°23' W 122°04'816.8
2017-Oct-30 19:00N 34°23' W 122°14'917.0
2017-Oct-30 18:29N 34°23' W 122°25'817.1
2017-Oct-30 18:00N 34°22' W 122°35'917.1
2017-Oct-30 17:30N 34°22' W 122°45'817.0
2017-Oct-30 17:01N 34°22' W 122°55'916.8
2017-Oct-30 16:27N 34°22' W 123°06'817.1
2017-Oct-30 16:01N 34°22' W 123°16'816.8
2017-Oct-30 15:30N 34°22' W 123°26'816.9
2017-Oct-30 15:00N 34°22' W 123°36'1514.7
2017-Oct-30 14:00N 34°21' W 123°54'814.2
2017-Oct-30 13:28N 34°21' W 124°03'714.1
2017-Oct-30 12:59N 34°21' W 124°12'714.2
2017-Oct-30 12:28N 34°21' W 124°20'913.9
2017-Oct-30 11:50N 34°21' W 124°31'814.0
2017-Oct-30 11:14N 34°21' W 124°41'313.9
2017-Oct-30 11:00N 34°21' W 124°45'713.7
2017-Oct-30 10:30N 34°21' W 124°53'814.2
2017-Oct-30 09:56N 34°21' W 125°03'614.0
2017-Oct-30 09:29N 34°21' W 125°11'5316.7
2017-Oct-30 06:18N 34°36' W 126°12'1116.5
2017-Oct-30 05:40N 34°39' W 126°25'316.7
2017-Oct-30 05:30N 34°40' W 126°28'917.0
2017-Oct-30 04:59N 34°43' W 126°38'1117.1
2017-Oct-30 04:21N 34°46' W 126°50'5217.0
2017-Oct-30 01:17N 35°02' W 127°51'617.2
2017-Oct-30 00:57N 35°04' W 127°58'817.2
2017-Oct-30 00:30N 35°06' W 128°07'816.8
2017-Oct-30 00:00N 35°09' W 128°16'816.9
2017-Oct-29 23:30N 35°11' W 128°26'816.9
2017-Oct-29 23:00N 35°14' W 128°36'917.1
2017-Oct-29 22:30N 35°16' W 128°46'1017.2
2017-Oct-29 21:55N 35°19' W 128°58'717.3
2017-Oct-29 21:30N 35°22' W 129°06'917.3
2017-Oct-29 21:00N 35°24' W 129°16'917.2
2017-Oct-29 20:30N 35°27' W 129°26'917.1
2017-Oct-29 20:00N 35°29' W 129°36'1017.0
2017-Oct-29 19:25N 35°32' W 129°48'716.9
2017-Oct-29 18:59N 35°34' W 129°56'1016.8
2017-Oct-29 18:25N 35°37' W 130°08'1917.0
2017-Oct-29 17:17N 35°41' W 130°31'517.0
2017-Oct-29 17:00N 35°42' W 130°37'1117.1
2017-Oct-29 16:21N 35°45' W 130°50'617.1
2017-Oct-29 16:00N 35°46' W 130°57'917.1
2017-Oct-29 15:30N 35°48' W 131°08'1317.2
2017-Oct-29 14:46N 35°51' W 131°23'617.1
2017-Oct-29 14:26N 35°52' W 131°30'717.1
2017-Oct-29 14:00N 35°53' W 131°39'8216.9
2017-Oct-29 09:08N 36°11' W 133°18'  
Track history (hours):
 
Tides and Currents Weather Stations Pressure Air Temp Water Temp Dewpoint Dewpoint Depression Visibility Wind Speed Wind Dir Waves Ship Positions

CSCL East China Sea

Last reported at 2017-Nov-05 04:50 UTC. Time now 2017-Nov-18 21:12 UTC.
Position N 34°15' W 121°60'.
Warning: this ship's position is 13 days out of date.

Length 335 m; draft 10.3 m.

Type: Cargo ship. MMSI: 477848700.

Date/timePositionNaut miles runAvg speedWind from/ knotsBaromVisibWave heightAir tempDewpointWater temp
2017-Nov-05 04:50N 34°15' W 121°60'513.8
2017-Nov-05 04:31N 34°16' W 121°55'714.0
2017-Nov-05 04:00N 34°17' W 121°46'714.0
2017-Nov-05 03:30N 34°19' W 121°38'713.5
2017-Nov-05 03:00N 34°21' W 121°30'713.3
2017-Nov-05 02:30N 34°23' W 121°23'713.3
2017-Nov-05 02:00N 34°25' W 121°15'713.4
2017-Nov-05 01:30N 34°26' W 121°07'713.4
2017-Nov-05 01:00N 34°26' W 120°59'713.0
2017-Nov-05 00:30N 34°26' W 120°51'713.3
2017-Nov-05 00:00N 34°24' W 120°43'713.6
2017-Nov-04 23:29N 34°22' W 120°35'813.7
2017-Nov-04 22:53N 34°20' W 120°25'513.8
2017-Nov-04 22:30N 34°19' W 120°19'713.7
2017-Nov-04 21:58N 34°17' W 120°11'713.7
2017-Nov-04 21:26N 34°15' W 120°02'613.4
2017-Nov-04 21:00N 34°14' W 119°55'712.7
2017-Nov-04 20:28N 34°12' W 119°48'712.9
2017-Nov-04 19:58N 34°10' W 119°40'613.5
2017-Nov-04 19:31N 34°08' W 119°33'713.8
2017-Nov-04 19:00N 34°07' W 119°25'713.6
2017-Nov-04 18:30N 34°05' W 119°17'713.2
2017-Nov-04 17:59N 34°01' W 119°09'713.4
2017-Nov-04 17:29N 33°58' W 119°02'611.5
2017-Nov-04 16:58N 33°55' W 118°56'511.2
2017-Nov-04 16:30N 33°53' W 118°51'611.1
2017-Nov-04 16:00N 33°50' W 118°45'611.3
2017-Nov-04 15:30N 33°47' W 118°39'611.6
2017-Nov-04 15:00N 33°44' W 118°33'611.1
2017-Nov-04 14:30N 33°41' W 118°27'510.0
2017-Nov-04 13:57N 33°39' W 118°21'410.1
2017-Nov-04 13:31N 33°38' W 118°16'6 8.5
2017-Nov-04 12:50N 33°42' W 118°11'2 0.5
2017-Nov-04 08:10N 33°44' W 118°12'0 0.0
2017-Nov-02 14:43N 33°44' W 118°12'0 0.0
2017-Nov-02 14:28N 33°44' W 118°12'0 0.0
2017-Oct-31 20:04N 33°44' W 118°12'0 0.0
2017-Oct-31 18:52N 33°44' W 118°12'0 0.0
2017-Oct-31 14:49N 33°44' W 118°12'0 0.1
2017-Oct-31 14:11N 33°44' W 118°12'1 1.9
2017-Oct-31 13:54N 33°44' W 118°12'5 7.4
2017-Oct-31 13:15N 33°39' W 118°11'7 8.9
2017-Oct-31 12:26N 33°36' W 118°19'511.2
2017-Oct-31 12:00N 33°38' W 118°24'611.2
2017-Oct-31 11:30N 33°40' W 118°30'511.0
2017-Oct-31 11:00N 33°43' W 118°36'510.9
2017-Oct-31 10:30N 33°44' W 118°42'2 4.2
2017-Oct-31 10:00N 33°44' W 118°45'0 0.4
2017-Oct-31 09:30N 33°44' W 118°45'0 0.6
2017-Oct-31 09:00N 33°45' W 118°44'1 2.0
2017-Oct-31 08:30N 33°46' W 118°44'3 5.3
2017-Oct-31 08:00N 33°48' W 118°46'611.2
2017-Oct-31 07:30N 33°51' W 118°51'611.6
2017-Oct-31 07:00N 33°54' W 118°58'611.8
2017-Oct-31 06:30N 33°57' W 119°04'713.2
2017-Oct-31 05:58N 33°60' W 119°11'511.1
2017-Oct-31 05:29N 34°02' W 119°17'713.9
2017-Oct-31 04:59N 34°04' W 119°25'713.8
2017-Oct-31 04:30N 34°06' W 119°33'714.1
2017-Oct-31 04:00N 34°08' W 119°41'913.9
2017-Oct-31 03:20N 34°11' W 119°52'613.4
2017-Oct-31 02:51N 34°12' W 119°59'513.6
2017-Oct-31 02:30N 34°14' W 120°05'713.5
2017-Oct-31 01:59N 34°15' W 120°13'813.8
2017-Oct-31 01:25N 34°17' W 120°22'613.8
2017-Oct-31 01:00N 34°18' W 120°29'713.4
2017-Oct-31 00:27N 34°21' W 120°37'613.1
2017-Oct-30 23:58N 34°22' W 120°45'814.0
2017-Oct-30 23:24N 34°24' W 120°54'614.6
2017-Oct-30 23:01N 34°24' W 121°01'714.2
2017-Oct-30 22:30N 34°24' W 121°10'714.4
2017-Oct-30 22:00N 34°24' W 121°18'714.4
2017-Oct-30 21:30N 34°24' W 121°27'714.7
2017-Oct-30 21:00N 34°24' W 121°36'714.6
2017-Oct-30 20:30N 34°23' W 121°45'814.6
2017-Oct-30 19:58N 34°23' W 121°54'816.9
2017-Oct-30 19:31N 34°23' W 122°04'816.8
2017-Oct-30 19:00N 34°23' W 122°14'917.0
2017-Oct-30 18:29N 34°23' W 122°25'817.1
2017-Oct-30 18:00N 34°22' W 122°35'917.1
2017-Oct-30 17:30N 34°22' W 122°45'817.0
2017-Oct-30 17:01N 34°22' W 122°55'916.8
2017-Oct-30 16:27N 34°22' W 123°06'817.1
2017-Oct-30 16:01N 34°22' W 123°16'816.8
2017-Oct-30 15:30N 34°22' W 123°26'816.9
2017-Oct-30 15:00N 34°22' W 123°36'1514.7
2017-Oct-30 14:00N 34°21' W 123°54'814.2
2017-Oct-30 13:28N 34°21' W 124°03'714.1
2017-Oct-30 12:59N 34°21' W 124°12'714.2
2017-Oct-30 12:28N 34°21' W 124°20'913.9
2017-Oct-30 11:50N 34°21' W 124°31'814.0
2017-Oct-30 11:14N 34°21' W 124°41'313.9
2017-Oct-30 11:00N 34°21' W 124°45'713.7
2017-Oct-30 10:30N 34°21' W 124°53'814.2
2017-Oct-30 09:56N 34°21' W 125°03'614.0
2017-Oct-30 09:29N 34°21' W 125°11'5316.7
2017-Oct-30 06:18N 34°36' W 126°12'1116.5
2017-Oct-30 05:40N 34°39' W 126°25'316.7
2017-Oct-30 05:30N 34°40' W 126°28'917.0
2017-Oct-30 04:59N 34°43' W 126°38'1117.1
2017-Oct-30 04:21N 34°46' W 126°50'5217.0
2017-Oct-30 01:17N 35°02' W 127°51'617.2
2017-Oct-30 00:57N 35°04' W 127°58'817.2
2017-Oct-30 00:30N 35°06' W 128°07'816.8
2017-Oct-30 00:00N 35°09' W 128°16'816.9
2017-Oct-29 23:30N 35°11' W 128°26'816.9
2017-Oct-29 23:00N 35°14' W 128°36'917.1
2017-Oct-29 22:30N 35°16' W 128°46'1017.2
2017-Oct-29 21:55N 35°19' W 128°58'717.3
2017-Oct-29 21:30N 35°22' W 129°06'917.3
2017-Oct-29 21:00N 35°24' W 129°16'917.2
2017-Oct-29 20:30N 35°27' W 129°26'917.1
2017-Oct-29 20:00N 35°29' W 129°36'1017.0
2017-Oct-29 19:25N 35°32' W 129°48'716.9
2017-Oct-29 18:59N 35°34' W 129°56'1016.8
2017-Oct-29 18:25N 35°37' W 130°08'1917.0
2017-Oct-29 17:17N 35°41' W 130°31'517.0
2017-Oct-29 17:00N 35°42' W 130°37'1117.1
2017-Oct-29 16:21N 35°45' W 130°50'617.1
2017-Oct-29 16:00N 35°46' W 130°57'917.1
2017-Oct-29 15:30N 35°48' W 131°08'1317.2
2017-Oct-29 14:46N 35°51' W 131°23'617.1
2017-Oct-29 14:26N 35°52' W 131°30'717.1
2017-Oct-29 14:00N 35°53' W 131°39'8216.9
2017-Oct-29 09:08N 36°11' W 133°18'  

Dump ship's entire track history